createdAt,value
2023-05-18T00:00:59.374Z,23.40
2023-05-18T00:03:28.469Z,33.22
2023-05-18T00:06:07.176Z,29.13
2023-05-18T00:08:36.082Z,20.98
2023-05-18T00:11:05.812Z,26.85
2023-05-18T00:13:34.760Z,26.02
2023-05-18T00:16:03.329Z,27.80
2023-05-18T00:18:34.440Z,24.00
2023-05-18T00:21:04.599Z,25.23
2023-05-18T00:23:33.302Z,25.98
2023-05-18T00:26:02.984Z,27.73
2023-05-18T00:28:31.548Z,27.38
2023-05-18T00:31:00.584Z,26.33
2023-05-18T00:33:29.108Z,30.17
2023-05-18T00:35:59.435Z,25.85
2023-05-18T00:38:29.409Z,24.23
2023-05-18T00:40:57.990Z,29.85
2023-05-18T00:43:26.513Z,25.73
2023-05-18T00:45:55.459Z,20.40
2023-05-18T00:48:24.016Z,24.88
2023-05-18T00:50:52.727Z,26.92
2023-05-18T00:53:21.284Z,25.33
2023-05-18T00:55:53.662Z,27.55
2023-05-18T00:58:23.846Z,24.73
2023-05-18T01:00:53.262Z,26.13
2023-05-18T01:03:22.026Z,26.33
2023-05-18T01:05:55.871Z,20.15
2023-05-18T01:08:27.733Z,28.25
2023-05-18T01:11:06.829Z,31.60
2023-05-18T01:13:42.553Z,25.70
2023-05-18T01:16:18.546Z,29.73
2023-05-18T01:18:55.084Z,32.38
2023-05-18T01:21:34.007Z,24.45
2023-05-18T01:24:16.258Z,29.85
2023-05-18T01:26:50.738Z,24.52
2023-05-18T01:29:22.235Z,24.10
2023-05-18T01:31:50.803Z,30.38
2023-05-18T01:34:19.446Z,26.98
2023-05-18T01:36:47.965Z,33.90
2023-05-18T01:39:16.973Z,23.52
2023-05-18T01:41:52.858Z,26.05
2023-05-18T01:44:25.755Z,22.00
2023-05-18T01:47:00.759Z,33.75
2023-05-18T01:49:37.009Z,26.83
2023-05-18T01:52:10.331Z,22.75
2023-05-18T01:54:44.554Z,27.13
2023-05-18T01:57:14.843Z,29.20
2023-05-18T01:59:44.591Z,28.95
2023-05-18T02:02:13.518Z,23.38
2023-05-18T02:04:42.188Z,30.30
2023-05-18T02:07:10.822Z,25.38
2023-05-18T02:09:39.677Z,30.58
2023-05-18T02:12:09.487Z,32.38
2023-05-18T02:14:40.047Z,31.30
2023-05-18T02:17:09.831Z,26.15
2023-05-18T02:19:38.930Z,27.42
2023-05-18T02:22:08.766Z,30.25
2023-05-18T02:24:39.157Z,27.40
2023-05-18T02:27:07.777Z,32.83
2023-05-18T02:29:36.561Z,34.72
2023-05-18T02:32:07.107Z,23.15
2023-05-18T02:34:38.334Z,28.90
2023-05-18T02:37:06.916Z,27.83
2023-05-18T02:39:36.776Z,28.65
2023-05-18T02:42:05.916Z,26.88
2023-05-18T02:44:34.783Z,24.33
2023-05-18T02:47:03.317Z,25.50
2023-05-18T02:49:34.623Z,28.02
2023-05-18T02:52:03.161Z,27.92
2023-05-18T02:54:32.199Z,23.75
2023-05-18T02:57:01.360Z,26.58
2023-05-18T02:59:43.727Z,23.08
2023-05-18T03:02:14.502Z,31.05
2023-05-18T03:04:45.793Z,24.85
2023-05-18T03:07:15.134Z,30.67
2023-05-18T03:09:43.658Z,27.88
2023-05-18T03:12:12.249Z,31.48
2023-05-18T03:14:42.213Z,24.52
2023-05-18T03:17:10.809Z,25.77
2023-05-18T03:19:39.461Z,22.73
2023-05-18T03:22:09.496Z,26.10
2023-05-18T03:24:40.397Z,25.75
2023-05-18T03:27:16.686Z,36.72
2023-05-18T03:29:46.918Z,27.92
2023-05-18T03:32:16.096Z,23.58
2023-05-18T03:34:45.098Z,23.65
2023-05-18T03:37:16.091Z,20.73
2023-05-18T03:39:45.037Z,23.90
2023-05-18T03:42:14.459Z,23.35
2023-05-18T03:44:43.122Z,27.20
2023-05-18T03:47:11.760Z,26.15
2023-05-18T03:49:40.710Z,29.58
2023-05-18T03:52:09.553Z,16.90
2023-05-18T03:54:42.823Z,24.55
2023-05-18T03:57:11.700Z,23.33
2023-05-18T03:59:40.527Z,24.60
2023-05-18T04:02:09.193Z,18.67
2023-05-18T04:04:38.115Z,62.30
2023-05-18T04:07:08.601Z,23.05
2023-05-18T04:09:38.622Z,23.27
2023-05-18T04:12:07.919Z,19.58
2023-05-18T04:14:36.709Z,13.85
2023-05-18T04:17:06.562Z,22.77
2023-05-18T04:19:36.662Z,17.90
2023-05-18T04:22:06.208Z,25.90
2023-05-18T04:24:35.749Z,21.25
2023-05-18T04:27:06.387Z,23.63
2023-05-18T04:29:35.071Z,22.33
2023-05-18T04:32:03.605Z,27.08
2023-05-18T04:34:33.920Z,23.13
2023-05-18T04:37:05.585Z,26.58
2023-05-18T04:39:34.838Z,16.08
2023-05-18T04:42:10.727Z,33.00
2023-05-18T04:44:39.429Z,25.52
2023-05-18T04:47:09.025Z,22.98
2023-05-18T04:49:38.888Z,21.67
2023-05-18T04:52:10.433Z,26.30
2023-05-18T04:54:41.334Z,25.10
2023-05-18T04:57:11.776Z,18.38
2023-05-18T04:59:42.629Z,32.28
2023-05-18T05:02:11.228Z,22.95
2023-05-18T05:04:39.961Z,23.35
2023-05-18T05:07:09.147Z,25.42
2023-05-18T05:09:37.699Z,21.17
2023-05-18T05:12:06.744Z,15.52
2023-05-18T05:14:36.688Z,18.60
2023-05-18T05:17:05.402Z,21.90
2023-05-18T05:19:34.292Z,25.27
2023-05-18T05:22:02.918Z,18.60
2023-05-18T05:24:31.505Z,16.70
2023-05-18T05:27:00.005Z,13.32
2023-05-18T05:29:28.650Z,17.63
2023-05-18T05:31:58.659Z,17.00
2023-05-18T05:34:27.589Z,16.02
2023-05-18T05:36:57.107Z,16.63
2023-05-18T05:39:25.759Z,16.85
2023-05-18T05:41:55.185Z,16.10
2023-05-18T05:44:23.998Z,17.60
2023-05-18T05:46:53.113Z,16.45
2023-05-18T05:49:23.726Z,13.23
2023-05-18T05:51:56.401Z,18.17
2023-05-18T05:54:24.932Z,16.98
2023-05-18T05:56:53.523Z,15.60
2023-05-18T05:59:22.477Z,19.17
2023-05-18T06:01:51.175Z,21.73
2023-05-18T06:04:20.956Z,22.02
2023-05-18T06:06:51.364Z,14.52
2023-05-18T06:09:20.208Z,15.32
2023-05-18T06:11:48.851Z,21.25
2023-05-18T06:14:17.440Z,18.38
2023-05-18T06:16:46.617Z,15.35
2023-05-18T06:19:15.349Z,19.70
2023-05-18T06:21:44.235Z,21.65
2023-05-18T06:24:14.775Z,19.33
2023-05-18T06:26:51.149Z,17.65
2023-05-18T06:29:38.207Z,13.35
2023-05-18T06:32:37.533Z,11.90
2023-05-18T06:35:07.897Z,12.95
2023-05-18T06:37:36.618Z,18.92
2023-05-18T06:40:07.760Z,9.05
2023-05-18T06:42:37.009Z,14.38
2023-05-18T06:45:37.031Z,10.00
2023-05-18T06:48:21.310Z,12.93
2023-05-18T06:50:50.867Z,15.13
2023-05-18T06:53:19.466Z,12.27
2023-05-18T06:55:49.437Z,10.80
2023-05-18T06:58:17.992Z,12.00
2023-05-18T07:00:48.596Z,15.23
2023-05-18T07:03:17.409Z,13.90
2023-05-18T07:05:47.313Z,10.05
2023-05-18T07:08:15.974Z,7.72
2023-05-18T07:10:44.536Z,9.35
2023-05-18T07:13:14.536Z,10.35
2023-05-18T07:15:43.134Z,8.13
2023-05-18T07:18:15.680Z,8.05
2023-05-18T07:20:44.295Z,8.10
2023-05-18T07:23:12.876Z,8.25
2023-05-18T07:25:41.497Z,8.25
2023-05-18T07:28:10.091Z,7.82
2023-05-18T07:30:40.061Z,8.98
2023-05-18T07:33:09.064Z,9.27
2023-05-18T07:35:37.934Z,11.63
2023-05-18T07:38:06.677Z,12.40
2023-05-18T07:40:35.217Z,7.65
2023-05-18T07:43:03.783Z,8.88
2023-05-18T07:45:32.715Z,9.68
2023-05-18T07:48:02.888Z,6.85
2023-05-18T07:50:31.472Z,7.97
2023-05-18T07:52:59.955Z,4.88
2023-05-18T07:55:29.341Z,8.32
2023-05-18T07:57:58.027Z,5.60
2023-05-18T08:00:26.610Z,8.68
2023-05-18T08:02:55.349Z,10.20
2023-05-18T08:05:25.280Z,7.43
2023-05-18T08:07:53.892Z,8.40
2023-05-18T08:10:22.492Z,7.00
2023-05-18T08:12:50.989Z,11.18
2023-05-18T08:15:19.615Z,7.82
2023-05-18T08:17:48.682Z,5.95
2023-05-18T08:20:18.289Z,6.15
2023-05-18T08:22:48.340Z,9.02
2023-05-18T08:25:16.953Z,8.35
2023-05-18T08:27:45.493Z,8.35
2023-05-18T08:30:14.993Z,8.45
2023-05-18T08:32:43.545Z,6.05
2023-05-18T08:35:12.627Z,11.90
2023-05-18T08:37:41.169Z,9.43
2023-05-18T08:40:13.059Z,6.53
2023-05-18T08:42:50.464Z,4.75
2023-05-18T08:45:25.342Z,6.70
2023-05-18T08:47:57.404Z,5.32
2023-05-18T08:50:27.752Z,9.52
2023-05-18T08:52:57.458Z,6.25
2023-05-18T08:55:29.692Z,6.35
2023-05-18T08:58:00.555Z,5.47
2023-05-18T09:00:29.708Z,8.65
2023-05-18T09:02:58.965Z,5.78
2023-05-18T09:05:27.965Z,7.03
2023-05-18T09:07:57.681Z,8.10
2023-05-18T09:10:27.830Z,6.90
2023-05-18T09:12:57.959Z,8.82
2023-05-18T09:15:27.927Z,6.55
2023-05-18T09:17:56.497Z,9.60
2023-05-18T09:20:27.107Z,12.30
2023-05-18T09:22:55.642Z,7.78
2023-05-18T09:25:26.145Z,6.88
2023-05-18T09:27:56.144Z,11.75
2023-05-18T09:30:26.571Z,7.10
2023-05-18T09:32:56.664Z,9.43
2023-05-18T09:35:26.739Z,8.95
2023-05-18T09:37:55.543Z,6.75
2023-05-18T09:40:29.610Z,7.13
2023-05-18T09:42:59.572Z,9.10
2023-05-18T09:45:28.967Z,6.95
2023-05-18T09:47:57.836Z,6.85
2023-05-18T09:50:27.502Z,6.57
2023-05-18T09:52:57.663Z,9.30
2023-05-18T09:55:26.240Z,7.10
2023-05-18T09:57:54.978Z,9.65
2023-05-18T10:00:26.165Z,11.05
2023-05-18T10:02:54.850Z,9.38
2023-05-18T10:05:24.820Z,8.80
2023-05-18T10:07:53.628Z,7.75
2023-05-18T10:10:24.531Z,7.97
2023-05-18T10:12:55.027Z,10.15
2023-05-18T10:15:25.738Z,8.98
2023-05-18T10:17:58.459Z,10.25
2023-05-18T10:20:27.648Z,8.57
2023-05-18T10:22:58.222Z,8.25
2023-05-18T10:25:28.326Z,7.75
2023-05-18T10:27:58.688Z,21.98
2023-05-18T10:30:29.623Z,7.63
2023-05-18T10:33:00.362Z,9.30
2023-05-18T10:35:29.984Z,10.10
2023-05-18T10:38:00.568Z,8.68
2023-05-18T10:40:30.121Z,6.55
2023-05-18T10:42:59.578Z,8.55
2023-05-18T10:45:29.895Z,7.88
2023-05-18T10:48:01.600Z,9.27
2023-05-18T10:50:32.948Z,9.02
2023-05-18T10:53:02.246Z,9.45
2023-05-18T10:55:31.657Z,11.13
2023-05-18T10:58:06.946Z,8.07
2023-05-18T11:00:40.185Z,15.60
2023-05-18T11:03:14.457Z,6.93
2023-05-18T11:05:43.532Z,5.38
2023-05-18T11:08:11.939Z,4.60
2023-05-18T11:10:42.561Z,6.57
2023-05-18T11:13:12.385Z,5.05
2023-05-18T11:16:08.392Z,7.80
2023-05-18T11:18:49.509Z,6.30
2023-05-18T11:21:33.011Z,9.38
2023-05-18T11:24:24.900Z,5.18
2023-05-18T11:29:25.026Z,7.57
2023-05-18T11:31:56.392Z,5.63
2023-05-18T11:34:49.657Z,6.80
2023-05-18T11:37:39.347Z,78.13
2023-05-18T11:40:12.194Z,5.25
2023-05-18T11:45:10.414Z,7.10
2023-05-18T11:47:41.676Z,5.55
2023-05-18T11:50:12.051Z,10.60
2023-05-18T11:52:48.189Z,10.30
2023-05-18T11:55:17.894Z,7.00
2023-05-18T11:57:52.770Z,8.85
2023-05-18T12:00:22.488Z,10.15
2023-05-18T12:02:53.139Z,7.88
2023-05-18T12:05:22.482Z,7.90
2023-05-18T12:07:54.903Z,5.45
2023-05-18T12:10:24.365Z,6.10
2023-05-18T12:12:54.233Z,5.10
2023-05-18T12:15:24.728Z,6.28
2023-05-18T12:17:55.164Z,8.07
2023-05-18T12:20:25.665Z,7.05
2023-05-18T12:22:55.580Z,11.05
2023-05-18T12:25:28.003Z,7.28
2023-05-18T12:27:57.272Z,5.45
2023-05-18T12:30:35.030Z,5.90
2023-05-18T12:33:07.152Z,9.40
2023-05-18T12:35:35.819Z,9.43
2023-05-18T12:38:04.563Z,9.63
2023-05-18T12:40:44.940Z,5.53
2023-05-18T12:43:14.292Z,12.27
2023-05-18T12:45:45.680Z,5.22
2023-05-18T12:48:16.128Z,9.70
2023-05-18T12:50:48.145Z,11.15
2023-05-18T12:53:16.761Z,5.57
2023-05-18T12:55:45.499Z,9.68
2023-05-18T12:58:16.891Z,6.10
2023-05-18T13:00:47.228Z,10.25
2023-05-18T13:03:18.386Z,5.30
2023-05-18T13:05:48.245Z,6.93
2023-05-18T13:08:18.277Z,8.63
2023-05-18T13:10:50.906Z,8.45
2023-05-18T13:13:24.003Z,4.38
2023-05-18T13:15:52.989Z,4.25
2023-05-18T13:18:22.989Z,6.85
2023-05-18T13:20:53.024Z,6.97
2023-05-18T13:23:22.922Z,6.82
2023-05-18T13:25:52.115Z,7.07
2023-05-18T13:28:22.545Z,6.15
2023-05-18T13:30:51.459Z,6.60
2023-05-18T13:33:19.917Z,6.18
2023-05-18T13:35:50.091Z,6.80
2023-05-18T13:38:18.993Z,6.47
2023-05-18T13:40:47.563Z,4.68
2023-05-18T13:43:16.623Z,5.60
2023-05-18T13:45:46.456Z,9.90
2023-05-18T13:48:14.974Z,7.40
2023-05-18T13:50:43.441Z,5.40
2023-05-18T13:53:13.449Z,7.40
2023-05-18T13:55:42.101Z,8.20
2023-05-18T13:58:11.203Z,8.20
2023-05-18T14:00:40.429Z,8.80
2023-05-18T14:03:10.056Z,7.20
2023-05-18T14:05:41.020Z,6.03
2023-05-18T14:08:09.509Z,6.22
2023-05-18T14:10:39.367Z,6.57
2023-05-18T14:13:08.609Z,6.40
2023-05-18T14:15:37.131Z,7.75
2023-05-18T14:18:06.094Z,8.18
2023-05-18T14:20:36.597Z,8.45
2023-05-18T14:23:05.969Z,7.70
2023-05-18T14:25:35.405Z,8.73
2023-05-18T14:28:05.195Z,10.00
2023-05-18T14:30:33.652Z,9.10
2023-05-18T14:33:02.072Z,7.53
2023-05-18T14:35:30.505Z,11.20
2023-05-18T14:37:58.960Z,11.20
2023-05-18T14:40:28.665Z,6.30
2023-05-18T14:42:57.212Z,6.65
2023-05-18T14:45:27.181Z,9.77
2023-05-18T14:47:55.589Z,9.10
2023-05-18T14:50:24.085Z,10.85
2023-05-18T14:52:54.986Z,6.22
2023-05-18T14:55:23.448Z,6.90
2023-05-18T14:57:51.857Z,4.75
2023-05-18T15:00:20.828Z,7.60
2023-05-18T15:02:50.802Z,8.00
2023-05-18T15:05:19.452Z,8.95
2023-05-18T15:07:47.825Z,9.93
2023-05-18T15:10:16.206Z,8.43
2023-05-18T15:12:44.633Z,10.68
2023-05-18T15:15:13.210Z,7.75
2023-05-18T15:17:41.702Z,8.70
2023-05-18T15:20:12.675Z,12.85
2023-05-18T15:22:41.510Z,14.02
2023-05-18T15:25:10.560Z,15.05
2023-05-18T15:27:39.451Z,10.10
2023-05-18T15:30:11.771Z,14.55
2023-05-18T15:32:40.585Z,9.98
2023-05-18T15:35:09.786Z,7.88
2023-05-18T15:37:39.645Z,9.82
2023-05-18T15:40:09.520Z,7.65
2023-05-18T15:42:37.967Z,12.93
2023-05-18T15:45:07.448Z,11.77
2023-05-18T15:47:35.889Z,12.32
2023-05-18T15:50:04.473Z,9.32
2023-05-18T15:52:32.951Z,13.40
2023-05-18T15:55:03.224Z,11.23
2023-05-18T15:57:31.729Z,13.55
2023-05-18T16:00:00.224Z,12.35
2023-05-18T16:02:28.825Z,8.00
2023-05-18T16:04:57.294Z,12.40
2023-05-18T16:07:25.739Z,15.55
2023-05-18T16:09:54.159Z,15.13
2023-05-18T16:12:24.058Z,12.57
2023-05-18T16:14:52.619Z,9.48
2023-05-18T16:17:21.059Z,8.52
2023-05-18T16:19:49.413Z,11.57
2023-05-18T16:22:17.798Z,9.10
2023-05-18T16:24:46.230Z,9.30
2023-05-18T16:27:14.700Z,8.50
2023-05-18T16:29:47.281Z,9.40
2023-05-18T16:32:15.870Z,12.15
2023-05-18T16:34:44.325Z,11.05
2023-05-18T16:37:12.824Z,10.55
2023-05-18T16:39:41.812Z,15.55
2023-05-18T16:42:10.261Z,7.63
2023-05-18T16:44:38.684Z,8.98
2023-05-18T16:47:08.622Z,5.43
2023-05-18T16:49:37.055Z,11.13
2023-05-18T16:52:05.806Z,10.63
2023-05-18T16:54:34.206Z,10.63
2023-05-18T16:57:05.197Z,8.35
2023-05-18T16:59:34.574Z,10.05
2023-05-18T17:02:04.792Z,10.63
2023-05-18T17:04:34.796Z,7.85
2023-05-18T17:07:03.210Z,10.52
2023-05-18T17:09:31.630Z,13.07
2023-05-18T17:12:00.050Z,8.07
2023-05-18T17:14:28.553Z,11.73
2023-05-18T17:16:57.032Z,12.60
2023-05-18T17:19:25.749Z,10.38
2023-05-18T17:21:56.486Z,11.63
2023-05-18T17:24:24.924Z,11.02
2023-05-18T17:26:53.590Z,8.90
2023-05-18T17:29:22.062Z,10.57
2023-05-18T17:31:50.541Z,8.98
2023-05-18T17:34:18.985Z,12.60
2023-05-18T17:36:47.489Z,8.60
2023-05-18T17:39:17.393Z,8.63
2023-05-18T17:41:46.070Z,11.98
2023-05-18T17:44:16.351Z,9.77
2023-05-18T17:46:45.916Z,8.07
2023-05-18T17:49:17.665Z,9.60
2023-05-18T17:51:46.430Z,10.60
2023-05-18T17:54:16.258Z,8.38
2023-05-18T17:56:44.983Z,7.40
2023-05-18T17:59:13.714Z,10.88
2023-05-18T18:01:43.259Z,11.93
2023-05-18T18:04:11.988Z,6.65
2023-05-18T18:06:42.550Z,12.32
2023-05-18T18:09:11.128Z,12.40
2023-05-18T18:11:41.573Z,13.25
2023-05-18T18:14:11.645Z,10.50
2023-05-18T18:16:40.297Z,12.10
2023-05-18T18:19:09.881Z,10.30
2023-05-18T18:21:38.919Z,11.52
2023-05-18T18:24:07.848Z,10.43
2023-05-18T18:26:40.438Z,13.88
2023-05-18T18:29:10.354Z,14.07
2023-05-18T18:31:39.038Z,12.40
2023-05-18T18:34:07.698Z,11.65
2023-05-18T18:36:36.292Z,17.42
2023-05-18T18:39:05.931Z,9.45
2023-05-18T18:41:34.586Z,7.45
2023-05-18T18:44:03.080Z,9.45
2023-05-18T18:46:33.685Z,12.18
2023-05-18T18:49:02.448Z,8.02
2023-05-18T18:51:31.398Z,14.18
2023-05-18T18:54:00.417Z,12.50
2023-05-18T18:56:29.070Z,8.95
2023-05-18T18:58:57.563Z,10.38
2023-05-18T19:01:26.197Z,7.75
2023-05-18T19:03:56.153Z,11.63
2023-05-18T19:06:27.363Z,10.40
2023-05-18T19:08:55.956Z,8.43
2023-05-18T19:11:24.571Z,7.50
2023-05-18T19:13:53.195Z,11.23
2023-05-18T19:16:22.013Z,9.05
2023-05-18T19:18:50.747Z,12.07
2023-05-18T19:21:21.584Z,16.90
2023-05-18T19:23:50.136Z,9.95
2023-05-18T19:26:18.715Z,8.77
2023-05-18T19:28:47.302Z,11.70
2023-05-18T19:31:16.774Z,6.85
2023-05-18T19:33:45.290Z,7.78
2023-05-18T19:36:13.917Z,8.70
2023-05-18T19:38:43.878Z,8.50
2023-05-18T19:41:12.825Z,9.63
2023-05-18T19:43:41.379Z,8.63
2023-05-18T19:46:09.937Z,7.32
2023-05-18T19:48:38.642Z,8.50
2023-05-18T19:51:07.355Z,8.93
2023-05-18T19:53:35.947Z,7.90
2023-05-18T19:56:06.235Z,10.30
2023-05-18T19:58:34.737Z,9.05
2023-05-18T20:01:03.425Z,9.38
2023-05-18T20:03:32.414Z,8.60
2023-05-18T20:06:00.947Z,6.60
2023-05-18T20:08:29.449Z,8.35
2023-05-18T20:10:57.935Z,7.32
2023-05-18T20:13:27.834Z,10.35
2023-05-18T20:15:56.900Z,12.20
2023-05-18T20:18:27.049Z,11.43
2023-05-18T20:20:56.395Z,12.93
2023-05-18T20:23:25.339Z,12.25
2023-05-18T20:25:54.664Z,12.43
2023-05-18T20:28:23.305Z,14.00
2023-05-18T20:30:53.285Z,10.05
2023-05-18T20:33:22.744Z,6.97
2023-05-18T20:35:52.002Z,11.73
2023-05-18T20:38:20.544Z,8.55
2023-05-18T20:40:51.392Z,9.90
2023-05-18T20:43:20.042Z,8.80
2023-05-18T20:45:49.736Z,11.93
2023-05-18T20:48:25.109Z,12.43
2023-05-18T20:50:53.861Z,8.98
2023-05-18T20:53:23.015Z,11.18
2023-05-18T20:55:54.329Z,11.50
2023-05-18T20:58:23.049Z,9.15
2023-05-18T21:00:52.286Z,10.38
2023-05-18T21:03:22.469Z,9.65
2023-05-18T21:05:51.914Z,11.63
2023-05-18T21:08:20.631Z,9.57
2023-05-18T21:10:49.194Z,11.48
2023-05-18T21:13:17.724Z,8.93
2023-05-18T21:15:46.280Z,8.85
2023-05-18T21:18:14.931Z,9.48
2023-05-18T21:20:44.958Z,12.27
2023-05-18T21:23:13.466Z,9.40
2023-05-18T21:25:42.031Z,12.40
2023-05-18T21:28:10.589Z,11.75
2023-05-18T21:30:39.151Z,13.98
2023-05-18T21:33:07.955Z,11.57
2023-05-18T21:35:36.664Z,11.98
2023-05-18T21:38:06.651Z,13.35
2023-05-18T21:40:36.341Z,9.95
2023-05-18T21:43:04.991Z,9.05
2023-05-18T21:45:33.561Z,10.15
2023-05-18T21:48:02.233Z,9.55
2023-05-18T21:50:34.911Z,13.18
2023-05-18T21:53:04.186Z,10.88
2023-05-18T21:55:34.306Z,12.15
2023-05-18T21:58:02.915Z,11.63
2023-05-18T22:00:31.680Z,12.70
2023-05-18T22:03:00.445Z,11.63
2023-05-18T22:05:29.120Z,13.05
2023-05-18T22:07:59.249Z,22.23
2023-05-18T22:10:28.028Z,10.85
2023-05-18T22:12:57.908Z,11.68
2023-05-18T22:15:26.410Z,12.23
2023-05-18T22:17:56.195Z,11.05
2023-05-18T22:20:24.879Z,11.63
2023-05-18T22:22:53.527Z,14.93
2023-05-18T22:25:22.077Z,14.07
2023-05-18T22:27:50.798Z,9.32
2023-05-18T22:30:23.893Z,10.90
2023-05-18T22:35:21.097Z,12.88
2023-05-18T22:37:49.622Z,14.05
2023-05-18T22:40:18.117Z,11.88
2023-05-18T22:42:46.649Z,11.68
2023-05-18T22:45:15.372Z,11.18
2023-05-18T22:47:46.455Z,9.35
2023-05-18T22:50:15.174Z,9.07
2023-05-18T22:52:43.803Z,8.63
2023-05-18T22:55:13.981Z,7.88
2023-05-18T22:57:42.707Z,11.43
2023-05-18T23:00:14.048Z,8.48
2023-05-18T23:02:43.874Z,8.40
2023-05-18T23:05:15.957Z,6.63
2023-05-18T23:07:44.566Z,6.70
2023-05-18T23:10:14.096Z,6.97
2023-05-18T23:12:42.830Z,10.15
2023-05-18T23:15:11.971Z,6.65
2023-05-18T23:17:43.297Z,7.25
2023-05-18T23:20:14.669Z,6.15
2023-05-18T23:22:43.646Z,6.63
2023-05-18T23:25:12.731Z,7.63
2023-05-18T23:27:41.244Z,6.05
2023-05-18T23:30:12.203Z,6.32
2023-05-18T23:32:41.847Z,6.88
2023-05-18T23:35:13.906Z,6.25
2023-05-18T23:37:45.181Z,5.63
2023-05-18T23:40:15.391Z,5.60
2023-05-18T23:42:44.499Z,5.88
2023-05-18T23:45:14.336Z,6.82
2023-05-18T23:47:43.506Z,4.93
2023-05-18T23:50:13.149Z,6.40
2023-05-18T23:52:45.581Z,4.63
2023-05-18T23:55:16.660Z,4.78
2023-05-18T23:57:45.923Z,9.02
